Greenville, SC (29601)

1:28 PM EST on February 07, 2016 (GMT -0500)
APRSWXNET | | Change Station
CLOSE
Current Station
Personal Weather Station
Location: Greenville, SC
Elevation: 961 ft
Nearby Weather Stations

Elev 961 ft 34.84 °N, 82.40 °W | Updated 24 minutes ago

Clear
Clear
53 °F
Feels Like 53 °F
N
2
Wind Variable Wind from North
Gusts 0.0 mph

Today
High -- | Low -- °F
--% Chance of Precip.
Yesterday
High -- | Low -- °F
Precip. -- in
Pressure 30.06 in
Visibility 10.0 miles
Clouds Clear
Dew Point 22 °F
Humidity 30%
Rainfall in
Snow Depth Not available.
7:23 AM 6:04 PM
Waning Crescent, 1% visible
METAR KGMU 071753Z 02009KT 10SM CLR 12/M08 A3005 RMK AO2 SLP177 T01221078 10122 20028 58019
Pressure 30.06 in
Visibility 10.0 miles
Clouds Clear
Dew Point 22 °F
Humidity 30%
Rainfall in
Snow Depth Not available.
7:23 AM 6:04 PM
Waning Crescent, 1% visible
METAR KGMU 071753Z 02009KT 10SM CLR 12/M08 A3005 RMK AO2 SLP177 T01221078 10122 20028 58019

10-Day Weather Forecast

Almanac

Astronomy

Feb. 07, 2016 Rise Set
Actual Time
Civil Twilight
Nautical Twilight
Astronomical Twilight
Moon
Length of Visible Light
Length of Day
Tomorrow will be .
, % of the Moon is Illuminated

Today's Extremes

State Highs State Lows

Community

WunderPhotos

Upload Photos

1,891,276 photos uploaded!

WunderBlog® & News

Nearby

Air Quality

  Air Quality AQ Index Pollutant
Not available.

Snow Depth

Station Depth Elevation

Earthquake Activity

City Distance Mag. Time & Date
Minimum magnitude displayed is 2.5.

Coastal Water Temperatures

Place Temperature

Stations

Nearby Weather Stations

Station Location Temp. Windchill Dew Point Humidity Wind Precip. Elev Updated Type
                   

Watches & Warnings

There are currently no watches in effect.